Time;durP1;ratioP1;P1;durP2;ratioP2;P2;SDS_P1;SDS_P2;PMS_P1;PMS_P2;Temp;Humidity;BMP_temperature;BMP_pressure;BME280_temperature;BME280_humidity;BME280_pressure;Samples;Min_cycle;Max_cycle;Signal;HPM_P1;HPM_P2
2022/07/18 04:02:35;;;;;;;3.53;1.90;;;;;;;15.74;48.67;99650.44;2601839;46;20022;-67
2022/07/18 04:05:04;;;;;;;3.88;2.10;;;;;;;15.79;48.82;99650.63;2621524;54;20030;-67
2022/07/18 04:07:34;;;;;;;4.57;1.75;;;;;;;15.80;49.03;99652.31;2618705;47;20023;-69
2022/07/18 04:10:06;;;;;;;2.70;1.98;;;;;;;15.69;48.76;99657.44;2618598;47;20031;-69
2022/07/18 04:12:36;;;;;;;4.88;2.28;;;;;;;15.44;49.53;99655.31;2620152;54;20684;-71
2022/07/18 04:15:06;;;;;;;3.83;2.50;;;;;;;15.42;49.74;99657.34;2622904;54;20043;-69
2022/07/18 04:17:39;;;;;;;3.45;1.90;;;;;;;15.39;49.55;99655.13;2623158;54;20035;-69
2022/07/18 04:20:10;;;;;;;3.00;2.25;;;;;;;15.39;49.88;99657.78;2623939;47;20158;-70
2022/07/18 04:22:52;;;;;;;3.13;2.10;;;;;;;15.45;49.78;99654.28;2624569;54;20038;-67
2022/07/18 04:25:25;;;;;;;5.20;2.15;;;;;;;15.56;49.58;99661.69;2623643;54;20040;-69
2022/07/18 04:27:55;;;;;;;2.43;2.10;;;;;;;15.66;48.71;99657.81;2624108;54;20542;-70
2022/07/18 04:30:27;;;;;;;2.53;2.30;;;;;;;15.71;48.74;99656.19;2622035;51;20544;-71
2022/07/18 04:33:02;;;;;;;5.55;2.10;;;;;;;15.81;48.53;99659.28;2622746;54;20030;-68
2022/07/18 04:35:35;;;;;;;6.35;2.20;;;;;;;15.87;47.90;99654.13;2622612;47;20030;-69
2022/07/18 04:38:06;;;;;;;3.65;1.80;;;;;;;15.90;47.58;99648.41;2623980;54;20030;-68
2022/07/18 04:40:35;;;;;;;4.38;2.20;;;;;;;15.96;47.26;99653.72;2621555;54;20027;-68
2022/07/18 04:43:06;;;;;;;7.15;3.10;;;;;;;16.03;46.83;99651.84;2623578;39;20452;-71
2022/07/18 04:45:37;;;;;;;4.78;2.53;;;;;;;16.09;46.65;99652.91;2624074;54;20569;-71
2022/07/18 04:48:16;;;;;;;5.07;2.10;;;;;;;16.15;46.85;99662.72;2624224;54;20086;-70
2022/07/18 04:50:49;;;;;;;6.07;2.70;;;;;;;16.28;46.54;99653.88;2621906;47;20022;-68
2022/07/18 04:53:19;;;;;;;3.95;2.05;;;;;;;16.27;46.04;99657.56;2622066;54;20089;-72
2022/07/18 04:55:49;;;;;;;4.53;1.92;;;;;;;16.35;46.00;99655.50;2624638;46;20041;-72
2022/07/18 04:58:19;;;;;;;3.22;1.73;;;;;;;16.47;45.60;99654.84;2623011;54;20030;-70
2022/07/18 05:00:50;;;;;;;3.72;1.63;;;;;;;16.56;45.15;99650.91;2625641;39;20409;-67
2022/07/18 05:03:22;;;;;;;3.15;2.00;;;;;;;16.49;45.15;99650.97;2623969;54;20126;-71
2022/07/18 05:05:53;;;;;;;5.25;1.90;;;;;;;16.52;45.43;99645.19;2624479;39;20512;-70
2022/07/18 05:08:25;;;;;;;3.10;1.80;;;;;;;16.59;45.27;99647.84;2624871;54;20027;-69
2022/07/18 05:10:55;;;;;;;2.25;1.70;;;;;;;16.67;44.75;99655.59;2623759;51;20030;-70
2022/07/18 05:13:27;;;;;;;6.20;2.25;;;;;;;16.71;45.00;99650.66;2622605;54;20086;-68
2022/07/18 05:15:59;;;;;;;3.20;1.70;;;;;;;16.71;44.77;99645.31;2623393;54;20022;-70
2022/07/18 05:18:31;;;;;;;4.22;1.80;;;;;;;16.75;44.44;99650.06;2624734;54;20073;-69
2022/07/18 05:21:02;;;;;;;3.05;1.75;;;;;;;16.81;44.53;99649.19;2625093;47;20064;-68
2022/07/18 05:23:32;;;;;;;2.92;2.13;;;;;;;16.88;44.77;99651.03;2622717;47;20034;-68
2022/07/18 05:26:02;;;;;;;2.55;1.80;;;;;;;16.94;44.70;99639.47;2621950;47;20034;-69
2022/07/18 05:28:33;;;;;;;3.85;1.48;;;;;;;16.94;43.94;99639.47;2622203;54;20611;-68
2022/07/18 05:31:02;;;;;;;2.45;1.70;;;;;;;16.95;43.47;99644.63;2619076;47;20030;-71
2022/07/18 05:33:35;;;;;;;6.20;1.80;;;;;;;17.00;43.51;99646.66;2623415;54;20542;-69
2022/07/18 05:36:06;;;;;;;1.50;1.40;;;;;;;17.14;43.41;99653.53;2623821;47;20022;-71
2022/07/18 05:38:36;;;;;;;4.72;1.90;;;;;;;17.32;43.30;99647.50;2619076;54;20045;-70
2022/07/18 05:41:06;;;;;;;4.35;2.05;;;;;;;17.50;42.93;99644.06;2618948;39;20743;-69
2022/07/18 05:43:36;;;;;;;2.17;1.83;;;;;;;17.61;42.79;99646.03;2619452;54;20027;-68
2022/07/18 05:46:07;;;;;;;6.28;2.45;;;;;;;17.66;43.10;99648.88;2619011;54;20055;-67
2022/07/18 05:48:45;;;;;;;2.00;1.80;;;;;;;17.80;42.94;99653.13;2620654;54;20026;-67
2022/07/18 05:51:15;;;;;;;3.65;2.00;;;;;;;18.00;42.30;99646.75;2619106;47;20022;-69
2022/07/18 05:53:45;;;;;;;3.65;1.83;;;;;;;18.05;42.68;99642.41;2618835;54;20042;-69
2022/07/18 05:56:15;;;;;;;8.18;5.38;;;;;;;18.22;42.36;99641.81;2619148;54;20049;-69
2022/07/18 05:58:45;;;;;;;6.75;3.03;;;;;;;18.36;42.12;99643.31;2619863;54;20034;-71
2022/07/18 06:01:19;;;;;;;5.57;2.78;;;;;;;18.51;41.42;99643.75;2620075;47;20021;-70
2022/07/18 06:03:52;;;;;;;5.80;2.60;;;;;;;18.63;41.42;99635.81;2620194;54;20081;-71
2022/07/18 06:06:23;;;;;;;2.78;1.90;;;;;;;18.71;40.66;99630.16;2621102;54;20034;-70
2022/07/18 06:08:53;;;;;;;6.05;2.78;;;;;;;18.69;41.08;99642.91;2622061;54;20030;-69
2022/07/18 06:11:37;;;;;;;5.28;2.22;;;;;;;18.76;41.01;99637.53;2620812;54;20042;-70
2022/07/18 06:14:24;;;;;;;9.15;2.50;;;;;;;18.94;40.86;99636.66;2620702;54;20023;-71
2022/07/18 06:16:54;;;;;;;9.00;2.88;;;;;;;19.00;40.55;99633.91;2621948;54;20038;-69
2022/07/18 06:19:27;;;;;;;12.60;2.90;;;;;;;19.06;39.99;99629.50;2622070;54;20046;-70
2022/07/18 06:21:56;;;;;;;2.53;2.30;;;;;;;19.16;40.13;99629.78;2619861;54;20034;-70
2022/07/18 06:24:26;;;;;;;7.43;3.60;;;;;;;19.25;39.41;99619.53;2619880;54;20049;-70
2022/07/18 06:26:56;;;;;;;3.92;2.00;;;;;;;19.35;39.70;99617.13;2619988;54;20042;-70
2022/07/18 06:29:26;;;;;;;4.15;2.20;;;;;;;19.39;39.61;99620.97;2618817;54;20070;-69
2022/07/18 06:31:55;;;;;;;7.95;2.40;;;;;;;19.52;39.07;99611.91;2618425;46;20042;-69
2022/07/18 06:34:28;;;;;;;8.93;2.05;;;;;;;19.60;38.89;99619.63;2619208;54;20183;-68
2022/07/18 06:36:58;;;;;;;8.63;2.30;;;;;;;19.76;38.73;99620.84;2619390;54;20031;-69
2022/07/18 06:39:28;;;;;;;2.78;1.83;;;;;;;19.90;38.04;99622.22;2618949;39;20509;-69
2022/07/18 06:41:57;;;;;;;9.25;2.50;;;;;;;19.89;37.98;99620.59;2619221;54;20064;-67
2022/07/18 06:44:27;;;;;;;4.68;2.50;;;;;;;20.01;38.12;99623.28;2618567;47;20026;-70
2022/07/18 06:46:59;;;;;;;7.88;2.97;;;;;;;20.14;38.27;99619.53;2618444;54;20030;-68
2022/07/18 06:49:32;;;;;;;6.70;2.35;;;;;;;20.35;37.91;99616.22;2618219;47;20030;-67
2022/07/18 06:52:02;;;;;;;8.23;2.60;;;;;;;20.48;36.75;99615.97;2618235;39;20417;-71
2022/07/18 06:54:35;;;;;;;6.53;2.72;;;;;;;20.54;36.56;99616.94;2618761;47;20061;-70
2022/07/18 06:57:06;;;;;;;7.53;2.10;;;;;;;20.51;37.50;99609.34;2619072;54;20035;-69
2022/07/18 06:59:37;;;;;;;5.88;1.98;;;;;;;20.52;37.14;99614.47;2619181;54;20174;-70
2022/07/18 07:02:07;;;;;;;4.68;2.58;;;;;;;20.71;37.12;99617.78;2619546;54;20035;-70
2022/07/18 07:04:39;;;;;;;10.65;2.38;;;;;;;20.95;36.25;99612.34;2619070;54;20038;-69
2022/07/18 07:07:09;;;;;;;6.07;2.13;;;;;;;21.00;35.87;99607.88;2619140;54;20038;-71
2022/07/18 07:09:39;;;;;;;9.40;2.05;;;;;;;21.03;36.13;99614.63;2619054;54;20111;-69
2022/07/18 07:12:09;;;;;;;8.32;2.30;;;;;;;21.10;36.22;99615.28;2619370;54;20038;-70
2022/07/18 07:14:39;;;;;;;4.90;2.13;;;;;;;21.30;35.68;99614.00;2619129;47;20031;-69
2022/07/18 07:17:09;;;;;;;10.20;3.80;;;;;;;21.43;35.90;99608.34;2619634;39;20410;-70
2022/07/18 07:19:42;;;;;;;16.10;4.13;;;;;;;21.66;35.10;99607.38;2619512;47;20034;-70
2022/07/18 07:22:11;;;;;;;5.97;2.58;;;;;;;21.82;35.48;99601.16;2620450;54;20030;-70
2022/07/18 07:24:41;;;;;;;4.88;2.97;;;;;;;21.99;34.84;99593.88;2619523;54;20030;-70
2022/07/18 07:27:11;;;;;;;12.10;4.38;;;;;;;22.11;34.58;99590.25;2618980;39;20505;-70
2022/07/18 07:29:41;;;;;;;6.28;2.42;;;;;;;22.26;34.21;99585.13;2619541;54;20018;-68
2022/07/18 07:32:14;;;;;;;5.85;2.83;;;;;;;22.46;34.43;99589.94;2618721;39;20469;-70
2022/07/18 07:34:46;;;;;;;6.72;3.00;;;;;;;22.62;33.87;99583.66;2619375;54;20043;-69
2022/07/18 07:37:16;;;;;;;5.50;1.92;;;;;;;22.72;33.25;99583.75;2619839;54;20568;-69
2022/07/18 07:39:46;;;;;;;7.85;2.20;;;;;;;22.80;33.46;99585.19;2618780;47;20057;-68
2022/07/18 07:42:15;;;;;;;5.07;2.03;;;;;;;22.88;32.67;99581.25;2618952;54;20039;-69
2022/07/18 07:44:45;;;;;;;6.78;3.17;;;;;;;23.07;32.29;99576.34;2619696;54;20038;-68
2022/07/18 07:47:15;;;;;;;5.65;3.72;;;;;;;23.21;32.33;99577.53;2618631;47;20035;-72
2022/07/18 07:49:47;;;;;;;8.90;2.50;;;;;;;23.29;32.73;99574.38;2619054;54;20034;-70
2022/07/18 07:52:18;;;;;;;6.25;2.22;;;;;;;23.38;31.78;99572.00;2618504;54;20576;-70
2022/07/18 07:54:48;;;;;;;4.75;2.92;;;;;;;23.63;31.44;99569.47;2618654;54;20576;-71
2022/07/18 07:57:21;;;;;;;5.00;1.92;;;;;;;23.83;31.00;99571.53;2618656;47;20037;-70
2022/07/18 07:59:50;;;;;;;2.15;1.88;;;;;;;23.91;30.59;99567.53;2619619;39;20426;-70
2022/07/18 08:02:21;;;;;;;6.13;2.83;;;;;;;24.03;30.61;99561.94;2618892;54;20038;-68
2022/07/18 08:04:53;;;;;;;3.65;1.70;;;;;;;24.24;30.12;99558.25;2619522;54;20034;-70
2022/07/18 08:07:23;;;;;;;6.95;1.55;;;;;;;24.35;29.47;99557.22;2619108;54;20038;-70
2022/07/18 08:09:53;;;;;;;3.28;1.63;;;;;;;24.37;30.10;99556.94;2618946;47;20037;-70
2022/07/18 08:12:23;;;;;;;3.17;1.30;;;;;;;24.50;29.69;99556.50;2619610;54;20041;-73
2022/07/18 08:14:52;;;;;;;5.38;1.65;;;;;;;24.62;29.58;99557.06;2620740;39;20465;-70
2022/07/18 08:17:22;;;;;;;2.47;1.77;;;;;;;24.78;28.95;99560.63;2624816;54;20037;-68
2022/07/18 08:19:54;;;;;;;5.40;1.60;;;;;;;24.82;28.70;99556.31;2622864;39;20502;-68
2022/07/18 08:22:24;;;;;;;4.03;1.60;;;;;;;24.83;28.90;99557.13;2620253;39;20455;-68
2022/07/18 08:24:54;;;;;;;2.20;1.60;;;;;;;24.99;28.32;99550.66;2619781;54;20026;-67
2022/07/18 08:27:23;;;;;;;3.42;1.23;;;;;;;25.12;28.35;99552.84;2619798;54;20568;-68
2022/07/18 08:29:53;;;;;;;6.18;1.70;;;;;;;25.26;28.47;99555.81;2618415;47;20114;-70
2022/07/18 08:32:36;;;;;;;1.95;1.75;;;;;;;25.48;27.20;99552.03;2619512;54;20077;-68
2022/07/18 08:35:10;;;;;;;2.33;1.35;;;;;;;25.54;27.18;99557.16;2619207;54;20030;-69
2022/07/18 08:37:39;;;;;;;2.60;1.42;;;;;;;25.55;26.79;99557.97;2618609;54;20034;-69
2022/07/18 08:40:10;;;;;;;4.57;1.45;;;;;;;25.68;26.21;99554.72;2619268;54;20038;-68
2022/07/18 08:42:41;;;;;;;1.85;1.17;;;;;;;25.76;26.34;99558.72;2620169;39;20406;-68
2022/07/18 08:45:31;;;;;;;2.72;1.45;;;;;;;25.82;26.09;99550.38;2619736;39;20406;-68
2022/07/18 08:48:00;;;;;;;3.00;0.98;;;;;;;25.99;25.14;99544.63;2619557;54;20053;-68
2022/07/18 08:50:34;;;;;;;1.95;1.05;;;;;;;26.26;24.62;99554.28;2618781;54;20030;-69
2022/07/18 08:53:04;;;;;;;1.92;1.33;;;;;;;26.34;24.65;99538.25;2618882;54;20037;-69
2022/07/18 08:55:34;;;;;;;5.38;1.25;;;;;;;26.38;24.72;99536.63;2618825;54;20033;-71
2022/07/18 08:58:04;;;;;;;3.13;1.20;;;;;;;26.55;24.49;99530.06;2618461;54;20035;-69
2022/07/18 09:00:53;;;;;;;3.92;1.42;;;;;;;26.74;24.52;99530.19;2618746;54;20026;-68
2022/07/18 09:03:23;;;;;;;3.75;1.55;;;;;;;26.90;23.93;99526.28;2619344;54;20030;-71
2022/07/18 09:06:06;;;;;;;2.33;1.58;;;;;;;26.93;24.52;99533.84;2619467;54;20027;-70
2022/07/18 09:08:36;;;;;;;3.17;1.53;;;;;;;27.08;24.11;99533.75;2619426;54;20545;-71
2022/07/18 09:11:10;;;;;;;4.35;1.80;;;;;;;27.15;23.88;99530.75;2619463;54;20026;-70
2022/07/18 09:14:00;;;;;;;2.42;1.40;;;;;;;27.22;23.33;99531.22;2620477;39;20681;-72
2022/07/18 09:16:30;;;;;;;1.77;1.33;;;;;;;27.23;23.59;99530.13;2618898;47;20033;-70
2022/07/18 09:19:07;;;;;;;4.53;1.63;;;;;;;27.30;23.31;99525.16;2619707;54;20027;-73
2022/07/18 09:21:40;;;;;;;2.85;1.20;;;;;;;27.41;23.77;99515.03;2619520;54;20030;-70
2022/07/18 09:24:11;;;;;;;4.03;1.40;;;;;;;27.55;23.32;99523.31;2619219;54;20034;-70
2022/07/18 09:26:43;;;;;;;3.28;1.25;;;;;;;27.71;22.33;99524.75;2619395;47;20031;-70
2022/07/18 09:29:18;;;;;;;1.63;1.10;;;;;;;27.80;22.50;99523.09;2619333;54;20065;-70
2022/07/18 09:31:58;;;;;;;1.35;1.23;;;;;;;27.76;22.66;99518.50;2619535;54;20038;-70
2022/07/18 09:34:39;;;;;;;2.80;1.42;;;;;;;27.92;22.43;99517.22;2619399;54;20026;-70
2022/07/18 09:37:14;;;;;;;3.28;1.40;;;;;;;28.07;21.59;99510.81;2619311;54;20046;-71
2022/07/18 09:39:44;;;;;;;2.47;1.30;;;;;;;28.30;20.93;99511.88;2620001;54;20042;-70
2022/07/18 09:42:18;;;;;;;2.58;1.27;;;;;;;28.35;20.63;99509.09;2621748;54;20027;-70
2022/07/18 09:45:00;;;;;;;2.85;1.00;;;;;;;28.29;20.91;99499.38;2623162;54;20027;-72
2022/07/18 09:47:29;;;;;;;2.30;1.20;;;;;;;28.32;20.45;99502.31;2622460;54;20034;-71
2022/07/18 09:49:59;;;;;;;2.55;1.45;;;;;;;28.32;20.80;99502.31;2623298;54;20030;-71
2022/07/18 09:52:31;;;;;;;7.25;1.33;;;;;;;28.44;21.01;99499.19;2621250;54;20031;-70
2022/07/18 09:55:08;;;;;;;1.88;1.15;;;;;;;28.48;21.19;99496.69;2620859;47;20023;-70
2022/07/18 09:57:38;;;;;;;1.23;0.90;;;;;;;28.68;20.06;99490.97;2618821;54;20034;-72
2022/07/18 10:00:09;;;;;;;3.20;1.20;;;;;;;28.77;20.14;99485.66;2619600;54;20057;-70
2022/07/18 10:02:42;;;;;;;1.98;1.10;;;;;;;28.67;20.50;99481.19;2619240;54;20038;-71
2022/07/18 10:05:12;;;;;;;1.85;1.20;;;;;;;28.82;20.13;99485.56;2618579;47;20026;-70
2022/07/18 10:07:45;;;;;;;2.05;1.00;;;;;;;28.98;20.09;99489.69;2619429;54;20033;-71
2022/07/18 10:10:17;;;;;;;1.77;1.10;;;;;;;29.00;19.64;99487.50;2619470;54;20134;-69
2022/07/18 10:12:47;;;;;;;1.20;1.05;;;;;;;28.96;19.92;99497.31;2619687;54;20031;-73
2022/07/18 10:15:17;;;;;;;2.10;1.90;;;;;;;29.12;19.47;99493.28;2618640;54;20557;-72
2022/07/18 10:17:47;;;;;;;1.60;1.50;;;;;;;29.24;18.92;99497.44;2619866;54;20038;-68
2022/07/18 10:20:17;;;;;;;1.50;1.00;;;;;;;29.28;18.33;99501.19;2619503;54;20027;-70
2022/07/18 10:22:49;;;;;;;1.13;0.90;;;;;;;29.29;18.06;99503.59;2619261;47;20550;-70
2022/07/18 10:25:23;;;;;;;1.55;1.10;;;;;;;29.48;18.14;99502.72;2619873;54;20022;-69
2022/07/18 10:27:55;;;;;;;1.90;1.20;;;;;;;29.54;18.32;99496.88;2619712;54;20038;-68
2022/07/18 10:30:34;;;;;;;1.23;1.00;;;;;;;29.65;17.67;99502.16;2618962;47;20133;-70
2022/07/18 10:33:05;;;;;;;1.98;1.10;;;;;;;29.56;17.69;99496.59;2619777;54;20830;-67
2022/07/18 10:36:02;;;;;;;1.92;1.00;;;;;;;29.58;17.69;99495.19;2619531;54;20037;-71
2022/07/18 10:39:12;;;;;;;1.05;0.95;;;;;;;29.67;18.17;99498.03;2619245;54;20026;-67
2022/07/18 10:42:15;;;;;;;1.23;1.00;;;;;;;29.64;17.83;99495.91;2619586;54;20038;-67
2022/07/18 10:44:47;;;;;;;2.88;1.33;;;;;;;29.42;18.42;99493.03;2619727;54;20022;-68
2022/07/18 10:47:22;;;;;;;1.98;1.33;;;;;;;29.52;18.33;99495.56;2619487;54;20027;-68
2022/07/18 10:50:10;;;;;;;4.72;2.03;;;;;;;29.65;18.02;99488.56;2619426;54;20023;-72
2022/07/18 10:53:01;;;;;;;3.60;0.90;;;;;;;29.82;17.41;99486.03;2619799;54;20585;-70
2022/07/18 10:55:49;;;;;;;2.15;1.33;;;;;;;29.91;17.88;99484.19;2619526;54;20034;-71
2022/07/18 10:58:24;;;;;;;1.70;1.40;;;;;;;30.01;17.82;99483.19;2619778;54;20027;-70
2022/07/18 11:01:09;;;;;;;1.48;1.08;;;;;;;30.03;17.30;99475.50;2622080;39;20513;-70
2022/07/18 11:03:38;;;;;;;4.57;1.80;;;;;;;30.04;17.54;99477.91;2624172;54;20037;-70
2022/07/18 11:06:08;;;;;;;2.30;1.40;;;;;;;30.03;17.95;99479.03;2619295;46;20565;-71
2022/07/18 11:08:39;;;;;;;3.08;1.08;;;;;;;30.14;17.28;99476.09;2620155;54;20046;-70
2022/07/18 11:11:15;;;;;;;1.60;1.10;;;;;;;30.08;17.58;99470.72;2619329;54;20117;-68
2022/07/18 11:13:49;;;;;;;1.70;1.38;;;;;;;30.11;17.53;99472.06;2619639;54;20023;-68
2022/07/18 11:16:22;;;;;;;3.13;1.67;;;;;;;30.21;18.10;99468.31;2620625;31;20510;-69
2022/07/18 11:19:31;;;;;;;3.35;2.35;;;;;;;30.41;17.65;99459.69;2619195;47;20034;-70
2022/07/18 11:22:01;;;;;;;1.48;1.10;;;;;;;30.49;17.91;99458.94;2619784;54;20034;-70
2022/07/18 11:24:31;;;;;;;2.28;1.23;;;;;;;30.63;17.73;99460.84;2619416;54;20530;-68
2022/07/18 11:27:07;;;;;;;7.57;1.42;;;;;;;30.81;17.26;99452.47;2618956;39;20421;-69
2022/07/18 11:29:43;;;;;;;2.13;1.00;;;;;;;30.74;16.98;99451.31;2619357;54;20110;-68
2022/07/18 11:32:13;;;;;;;1.20;1.02;;;;;;;30.71;17.07;99441.78;2619102;47;20055;-66
2022/07/18 11:34:52;;;;;;;1.70;1.00;;;;;;;30.76;17.12;99444.44;2619112;54;20041;-68
2022/07/18 11:37:22;;;;;;;2.75;1.17;;;;;;;30.81;16.93;99440.75;2619467;54;20150;-69
2022/07/18 11:39:52;;;;;;;1.63;1.30;;;;;;;30.84;17.16;99431.97;2619656;54;20034;-66
2022/07/18 11:42:42;;;;;;;3.35;1.30;;;;;;;31.04;17.45;99430.63;2618796;47;20030;-67
2022/07/18 11:45:16;;;;;;;1.20;1.10;;;;;;;31.15;17.10;99437.44;2619137;54;20035;-68
2022/07/18 11:47:50;;;;;;;1.70;1.20;;;;;;;30.95;16.80;99432.50;2619809;54;20038;-67
2022/07/18 11:50:36;;;;;;;5.28;1.20;;;;;;;30.76;17.21;99428.06;2619699;54;20031;-68
2022/07/18 11:53:09;;;;;;;3.83;1.30;;;;;;;30.81;17.45;99418.94;2618971;47;20533;-68
2022/07/18 11:55:40;;;;;;;1.65;1.17;;;;;;;30.87;17.48;99417.69;2620167;46;20339;-70
2022/07/18 11:58:15;;;;;;;1.92;1.02;;;;;;;30.94;17.26;99415.31;2619591;47;20030;-70
2022/07/18 12:00:45;;;;;;;5.93;4.53;;;;;;;31.05;17.36;99416.66;2619569;47;20668;-71
2022/07/18 12:03:16;;;;;;;2.92;1.92;;;;;;;31.18;17.44;99409.50;2620666;54;20033;-69
2022/07/18 12:05:48;;;;;;;2.07;1.40;;;;;;;31.32;17.28;99412.97;2623129;54;20034;-69
2022/07/18 12:08:33;;;;;;;1.85;1.35;;;;;;;31.38;17.48;99410.88;2622946;54;20121;-69
2022/07/18 12:11:17;;;;;;;1.88;1.40;;;;;;;31.64;17.03;99412.88;2623036;47;20053;-69
2022/07/18 12:14:01;;;;;;;4.32;1.33;;;;;;;31.77;17.11;99401.84;2623298;54;20580;-68
2022/07/18 12:16:38;;;;;;;2.95;1.15;;;;;;;31.87;17.59;99395.28;2623436;46;20035;-69
2022/07/18 12:19:13;;;;;;;5.33;1.40;;;;;;;31.99;17.23;99395.47;2623476;54;20041;-68
2022/07/18 12:21:52;;;;;;;3.53;1.25;;;;;;;32.04;17.29;99397.25;2623478;54;20396;-70
2022/07/18 12:24:26;;;;;;;1.73;1.05;;;;;;;32.10;17.60;99392.44;2623055;47;20042;-70
2022/07/18 12:27:21;;;;;;;1.20;1.10;;;;;;;32.25;16.70;99394.66;2624478;39;20402;-69
2022/07/18 12:30:11;;;;;;;1.52;1.20;;;;;;;32.11;16.88;99394.03;2622773;54;20027;-70
2022/07/18 12:32:46;;;;;;;2.35;1.00;;;;;;;32.00;16.96;99393.53;2622928;54;20034;-68
2022/07/18 12:35:19;;;;;;;2.15;1.10;;;;;;;31.89;17.18;99389.53;2622937;54;20038;-66
2022/07/18 12:37:57;;;;;;;4.13;1.55;;;;;;;31.95;17.17;99391.75;2622881;54;20557;-66
2022/07/18 12:40:28;;;;;;;1.17;1.08;;;;;;;32.00;17.09;99388.06;2622872;39;20422;-67
2022/07/18 12:43:08;;;;;;;1.23;1.13;;;;;;;32.02;17.21;99385.84;2622515;54;20030;-68
2022/07/18 12:45:41;;;;;;;1.92;1.40;;;;;;;32.15;16.81;99384.06;2623400;54;20029;-71
2022/07/18 12:48:13;;;;;;;2.33;1.33;;;;;;;32.20;16.74;99375.69;2623980;54;20039;-70
2022/07/18 12:50:44;;;;;;;2.15;1.10;;;;;;;32.21;16.54;99374.56;2622864;54;20046;-69
2022/07/18 12:53:15;;;;;;;1.40;1.30;;;;;;;32.29;16.75;99374.56;2623005;54;20538;-70
2022/07/18 12:55:44;;;;;;;2.08;1.92;;;;;;;32.41;16.79;99373.13;2622826;54;20034;-70
2022/07/18 12:58:14;;;;;;;2.80;1.63;;;;;;;32.41;16.96;99384.06;2623319;54;20548;-71
2022/07/18 13:00:48;;;;;;;5.32;2.13;;;;;;;32.59;17.01;99377.47;2622489;54;20069;-69
2022/07/18 13:03:18;;;;;;;2.10;1.42;;;;;;;32.74;16.89;99373.38;2623321;54;20027;-71
2022/07/18 13:05:48;;;;;;;1.38;1.27;;;;;;;32.85;16.54;99371.13;2624055;54;20026;-69
2022/07/18 13:08:19;;;;;;;3.55;1.80;;;;;;;32.90;16.45;99373.66;2623590;54;20030;-69
2022/07/18 13:10:50;;;;;;;1.90;1.48;;;;;;;33.08;16.55;99366.25;2624700;54;20026;-70
2022/07/18 13:13:20;;;;;;;3.17;1.25;;;;;;;33.02;15.70;99360.91;2623459;54;20328;-70
2022/07/18 13:15:53;;;;;;;1.63;1.25;;;;;;;32.99;16.39;99358.88;2625600;31;20531;-69
2022/07/18 13:18:22;;;;;;;2.75;1.20;;;;;;;33.12;16.27;99353.50;2623743;54;20538;-70
2022/07/18 13:20:52;;;;;;;2.13;1.48;;;;;;;33.24;16.52;99350.88;2624123;54;20026;-69
2022/07/18 13:23:22;;;;;;;4.13;1.40;;;;;;;33.46;16.00;99347.84;2621577;54;20027;-69
2022/07/18 13:25:52;;;;;;;2.15;1.40;;;;;;;33.60;15.77;99342.16;2622059;54;20026;-69
2022/07/18 13:28:22;;;;;;;6.93;1.60;;;;;;;33.55;15.78;99341.50;2621383;54;20569;-71
2022/07/18 13:30:55;;;;;;;2.53;1.40;;;;;;;33.47;15.53;99338.50;2620764;47;20033;-69
2022/07/18 13:33:25;;;;;;;2.55;1.45;;;;;;;33.39;15.79;99344.78;2621148;39;20411;-69
2022/07/18 13:35:55;;;;;;;3.55;1.40;;;;;;;33.36;16.01;99341.94;2621027;54;20030;-70
2022/07/18 13:38:25;;;;;;;1.63;1.30;;;;;;;33.40;15.86;99346.41;2619572;54;20051;-70
2022/07/18 13:40:55;;;;;;;1.92;1.10;;;;;;;33.34;15.92;99341.44;2620431;54;20023;-69
2022/07/18 13:43:24;;;;;;;2.25;1.65;;;;;;;33.23;15.81;99327.31;2620524;54;20085;-70
2022/07/18 13:45:57;;;;;;;1.40;1.30;;;;;;;33.36;15.73;99330.97;2621169;47;20554;-69
2022/07/18 13:48:30;;;;;;;2.55;1.40;;;;;;;33.26;16.09;99329.41;2624628;39;20552;-69
2022/07/18 13:50:59;;;;;;;2.28;1.30;;;;;;;33.31;16.04;99323.72;2622528;54;20023;-70
2022/07/18 13:53:29;;;;;;;4.05;1.60;;;;;;;33.45;16.46;99323.53;2620527;54;20034;-70
2022/07/18 13:56:01;;;;;;;2.33;1.40;;;;;;;33.65;15.78;99319.22;2619945;54;20094;-69
2022/07/18 13:58:30;;;;;;;12.65;1.95;;;;;;;33.87;15.74;99318.06;2619439;54;20038;-70
2022/07/18 14:01:03;;;;;;;3.15;1.58;;;;;;;33.98;15.63;99316.56;2619057;54;20061;-67
2022/07/18 14:03:33;;;;;;;2.10;1.65;;;;;;;33.94;15.67;99313.66;2619888;39;20417;-71
2022/07/18 14:06:02;;;;;;;3.30;1.35;;;;;;;33.84;15.48;99310.50;2619917;54;20038;-70
2022/07/18 14:08:32;;;;;;;2.58;1.80;;;;;;;33.87;15.98;99315.31;2619644;54;20042;-70
2022/07/18 14:11:02;;;;;;;2.40;1.85;;;;;;;33.98;15.52;99322.84;2619092;54;20037;-70
2022/07/18 14:13:34;;;;;;;1.70;1.30;;;;;;;33.90;15.76;99312.72;2619645;54;20114;-68
2022/07/18 14:16:10;;;;;;;2.88;1.45;;;;;;;33.75;15.33;99305.88;2620432;49;20026;-68
2022/07/18 14:18:40;;;;;;;2.33;1.45;;;;;;;33.84;15.75;99307.75;2619834;54;20026;-70
2022/07/18 14:21:09;;;;;;;1.80;1.70;;;;;;;33.99;15.61;99307.19;2620205;54;20166;-70
2022/07/18 14:23:46;;;;;;;4.18;1.60;;;;;;;34.07;15.31;99300.81;2619544;54;20045;-70
2022/07/18 14:26:16;;;;;;;7.03;6.25;;;;;;;34.06;15.59;99287.44;2619955;39;20423;-69
2022/07/18 14:28:45;;;;;;;5.82;3.30;;;;;;;34.09;15.54;99290.31;2618732;54;20030;-69
2022/07/18 14:31:18;;;;;;;4.55;2.33;;;;;;;34.19;15.49;99289.09;2619321;54;20038;-66
2022/07/18 14:33:47;;;;;;;;;;;;;;;34.37;15.52;99289.72;2619529;47;20625;-68
2022/07/18 14:36:17;;;;;;;4.28;2.03;;;;;;;34.47;15.16;99286.53;2620799;39;20677;-69
2022/07/18 14:38:48;;;;;;;2.30;2.03;;;;;;;34.38;15.46;99280.34;2619879;54;20608;-67
2022/07/18 14:41:17;;;;;;;2.50;1.63;;;;;;;34.26;15.48;99284.66;2619737;54;20046;-69
2022/07/18 14:43:47;;;;;;;3.67;1.73;;;;;;;34.28;15.68;99281.56;2619772;54;20077;-69
2022/07/18 14:46:19;;;;;;;4.28;2.08;;;;;;;34.37;15.51;99282.28;2620062;54;20037;-70
2022/07/18 14:48:51;;;;;;;2.85;1.50;;;;;;;34.43;15.18;99280.94;2620263;54;20568;-69
2022/07/18 14:51:21;;;;;;;5.78;2.20;;;;;;;34.48;15.21;99275.25;2619453;54;20153;-69
